MZT1 RCTP-ZBAA
Flight info
| Callsign | MZT1 |
|---|---|
| Flight time | N/A |
| Altitude | 39000 |
| Route | PIANO1C/05L PIANO L3 VIOLA R596 SULEM R596 BZ/K0850S1190 A470 EMRID W135 ADBAS/K0846S1220 W135 DOGVI A470 DPX A593 DALIM W157 BEKDO/K0848S1190 W157 AVBOX AVBOX8Y |
| Aircraft | CL60/M-SADE3FGHIJ3J4J7P2RWXY/HB1D1 |
Departure
| Time | 2026-05-06 13:24 |
|---|---|
| Airport | Taiwan Taoyuan International Airport (RCTP) |
Arrival
| Time | N/A |
|---|---|
| Airport | Beijing Capital International Airport (ZBAA) |
| Time | Latitude | Longitude | Altitude | Speed | Heading |
|---|---|---|---|---|---|
| 2026-05-06 12:49 | 25.07005 | 121.22002 | 114 ft | 0 kts | 139° |
| 2026-05-06 13:18 | 25.06996 | 121.21998 | 114 ft | 0 kts | 267° |
| 2026-05-06 13:18 | 25.07009 | 121.21985 | 114 ft | 6 kts | 324° |
| 2026-05-06 13:18 | 25.07055 | 121.21925 | 114 ft | 14 kts | 307° |
| 2026-05-06 13:19 | 25.07060 | 121.21902 | 114 ft | 3 kts | 226° |
| 2026-05-06 13:19 | 25.07049 | 121.21862 | 114 ft | 6 kts | 282° |
| 2026-05-06 13:19 | 25.07076 | 121.21811 | 114 ft | 12 kts | 308° |
| 2026-05-06 13:19 | 25.07153 | 121.21737 | 114 ft | 15 kts | 320° |
| 2026-05-06 13:20 | 25.07205 | 121.21685 | 114 ft | 0 kts | 317° |
| 2026-05-06 13:21 | 25.07207 | 121.21684 | 114 ft | 0 kts | 317° |
| 2026-05-06 13:22 | 25.07227 | 121.21663 | 114 ft | 8 kts | 317° |
| 2026-05-06 13:22 | 25.07304 | 121.21629 | 114 ft | 15 kts | 13° |
| 2026-05-06 13:22 | 25.07358 | 121.21688 | 114 ft | 5 kts | 49° |
| 2026-05-06 13:23 | 25.07359 | 121.21690 | 114 ft | 0 kts | 49° |
| 2026-05-06 13:23 | 25.07499 | 121.21865 | 114 ft | 80 kts | 49° |
| 2026-05-06 13:23 | 25.08066 | 121.22588 | 114 ft | 163 kts | 49° |
| 2026-05-06 13:24 | 25.08884 | 121.23594 | 788 ft | 182 kts | 46° |
| 2026-05-06 13:24 | 25.09706 | 121.24580 | 1599 ft | 165 kts | 51° |
| 2026-05-06 13:24 | 25.10400 | 121.25481 | 2142 ft | 151 kts | 51° |
| 2026-05-06 13:24 | 25.11073 | 121.26353 | 2514 ft | 148 kts | 51° |
| 2026-05-06 13:25 | 25.11758 | 121.27240 | 2852 ft | 164 kts | 51° |
| 2026-05-06 13:25 | 25.12556 | 121.28273 | 3470 ft | 191 kts | 50° |
| 2026-05-06 13:25 | 25.13480 | 121.29392 | 4310 ft | 205 kts | 40° |
| 2026-05-06 13:25 | 25.14813 | 121.29903 | 5193 ft | 212 kts | 357° |
| 2026-05-06 13:26 | 25.16254 | 121.29723 | 6162 ft | 214 kts | 349° |
| 2026-05-06 13:26 | 25.17720 | 121.29504 | 7147 ft | 215 kts | 349° |
| 2026-05-06 13:26 | 25.19186 | 121.29301 | 8103 ft | 215 kts | 350° |
| 2026-05-06 13:26 | 25.20665 | 121.29115 | 9036 ft | 214 kts | 351° |
| 2026-05-06 13:27 | 25.22127 | 121.28947 | 9918 ft | 213 kts | 351° |
| 2026-05-06 13:27 | 25.23584 | 121.28798 | 10772 ft | 211 kts | 352° |
| 2026-05-06 13:27 | 25.25015 | 121.28670 | 11587 ft | 209 kts | 353° |
| 2026-05-06 13:27 | 25.26475 | 121.28555 | 12407 ft | 210 kts | 354° |
| 2026-05-06 13:28 | 25.27913 | 121.28462 | 13217 ft | 210 kts | 355° |
| 2026-05-06 13:28 | 25.29357 | 121.28395 | 14027 ft | 209 kts | 356° |
| 2026-05-06 13:28 | 25.30800 | 121.28360 | 14800 ft | 208 kts | 356° |
| 2026-05-06 13:28 | 25.32238 | 121.28327 | 15541 ft | 207 kts | 356° |
| 2026-05-06 13:29 | 25.33671 | 121.28294 | 16259 ft | 206 kts | 355° |
| 2026-05-06 13:29 | 25.35090 | 121.28263 | 16945 ft | 205 kts | 355° |
| 2026-05-06 13:29 | 25.36542 | 121.28230 | 17434 ft | 218 kts | 355° |
| 2026-05-06 13:29 | 25.38118 | 121.28310 | 17893 ft | 237 kts | 11° |
| 2026-05-06 13:30 | 25.39620 | 121.29158 | 18449 ft | 254 kts | 42° |
| 2026-05-06 13:30 | 25.40817 | 121.30630 | 19090 ft | 262 kts | 47° |
| 2026-05-06 13:30 | 25.42020 | 121.32181 | 19773 ft | 266 kts | 46° |
| 2026-05-06 13:30 | 25.43229 | 121.33729 | 20462 ft | 269 kts | 47° |
| 2026-05-06 13:31 | 25.44446 | 121.35289 | 21147 ft | 271 kts | 46° |
| 2026-05-06 13:31 | 25.45689 | 121.36880 | 21838 ft | 272 kts | 47° |
| 2026-05-06 13:31 | 25.46927 | 121.38467 | 22516 ft | 273 kts | 47° |
| 2026-05-06 13:31 | 25.48158 | 121.40043 | 23172 ft | 274 kts | 46° |
| 2026-05-06 13:32 | 25.49399 | 121.41633 | 23823 ft | 275 kts | 46° |
| 2026-05-06 13:32 | 25.50650 | 121.43233 | 24477 ft | 276 kts | 46° |
| 2026-05-06 13:32 | 25.51912 | 121.44852 | 25119 ft | 276 kts | 45° |
| 2026-05-06 13:32 | 25.53166 | 121.46457 | 25727 ft | 277 kts | 45° |
| 2026-05-06 13:33 | 25.54427 | 121.48074 | 26319 ft | 277 kts | 45° |
| 2026-05-06 13:33 | 25.55696 | 121.49698 | 26887 ft | 277 kts | 44° |
| 2026-05-06 13:33 | 25.56960 | 121.51319 | 27432 ft | 278 kts | 44° |
| 2026-05-06 13:33 | 25.58229 | 121.52945 | 27953 ft | 279 kts | 44° |
| 2026-05-06 13:34 | 25.59496 | 121.54569 | 28458 ft | 279 kts | 43° |
| 2026-05-06 13:34 | 25.60772 | 121.56207 | 28949 ft | 280 kts | 43° |
| 2026-05-06 13:34 | 25.62063 | 121.57861 | 29434 ft | 280 kts | 43° |
| 2026-05-06 13:34 | 25.63342 | 121.59503 | 29899 ft | 280 kts | 43° |
| 2026-05-06 13:35 | 25.64620 | 121.61144 | 30353 ft | 280 kts | 43° |
| 2026-05-06 13:35 | 25.65895 | 121.62781 | 30802 ft | 280 kts | 43° |
| 2026-05-06 13:35 | 25.67169 | 121.64418 | 31236 ft | 280 kts | 43° |
| 2026-05-06 13:35 | 25.68440 | 121.66051 | 31646 ft | 279 kts | 43° |
| 2026-05-06 13:36 | 25.69708 | 121.67681 | 32034 ft | 279 kts | 42° |
| 2026-05-06 13:36 | 25.70973 | 121.69308 | 32403 ft | 279 kts | 43° |
| 2026-05-06 13:36 | 25.72243 | 121.70940 | 32762 ft | 278 kts | 42° |
| 2026-05-06 13:36 | 25.73506 | 121.72566 | 33109 ft | 278 kts | 42° |
| 2026-05-06 13:37 | 25.74767 | 121.74189 | 33472 ft | 278 kts | 42° |
| 2026-05-06 13:37 | 25.76026 | 121.75810 | 33820 ft | 277 kts | 41° |
| 2026-05-06 13:37 | 25.77285 | 121.77432 | 34150 ft | 277 kts | 41° |
| 2026-05-06 13:37 | 25.78542 | 121.79050 | 34434 ft | 278 kts | 41° |
| 2026-05-06 13:38 | 25.79879 | 121.80676 | 34508 ft | 285 kts | 39° |
| 2026-05-06 13:38 | 25.81283 | 121.82204 | 34885 ft | 279 kts | 32° |
| 2026-05-06 13:38 | 25.82798 | 121.83502 | 35256 ft | 273 kts | 28° |
| 2026-05-06 13:38 | 25.84341 | 121.84743 | 35447 ft | 277 kts | 28° |
| 2026-05-06 13:39 | 25.85913 | 121.86007 | 35503 ft | 285 kts | 28° |
| 2026-05-06 13:39 | 25.87557 | 121.87331 | 35582 ft | 293 kts | 28° |
| 2026-05-06 13:39 | 25.89219 | 121.88670 | 35661 ft | 301 kts | 28° |
| 2026-05-06 13:40 | 25.92697 | 121.91477 | 35813 ft | 317 kts | 29° |
| 2026-05-06 13:40 | 25.96379 | 121.94453 | 35952 ft | 333 kts | 29° |
| 2026-05-06 13:41 | 26.00219 | 121.97562 | 36085 ft | 349 kts | 30° |
| 2026-05-06 13:41 | 26.04240 | 122.00784 | 36216 ft | 364 kts | 29° |
| 2026-05-06 13:42 | 26.08462 | 122.04080 | 36339 ft | 378 kts | 29° |
| 2026-05-06 13:42 | 26.12865 | 122.07522 | 36459 ft | 392 kts | 29° |
| 2026-05-06 13:43 | 26.17398 | 122.11071 | 36576 ft | 405 kts | 30° |
| 2026-05-06 13:43 | 26.22078 | 122.14739 | 36695 ft | 416 kts | 30° |
| 2026-05-06 13:44 | 26.26888 | 122.18514 | 36808 ft | 427 kts | 30° |
| 2026-05-06 13:44 | 26.31808 | 122.22378 | 36916 ft | 436 kts | 30° |
| 2026-05-06 13:45 | 26.36807 | 122.26308 | 36973 ft | 446 kts | 30° |
| 2026-05-06 13:45 | 26.44506 | 122.32372 | 36988 ft | 454 kts | 30° |
| 2026-05-06 13:46 | 26.49677 | 122.36453 | 36988 ft | 454 kts | 30° |
| 2026-05-06 13:46 | 26.54826 | 122.40520 | 36995 ft | 452 kts | 30° |
| 2026-05-06 13:47 | 26.59963 | 122.44581 | 36993 ft | 452 kts | 30° |
| 2026-05-06 13:47 | 26.65063 | 122.48615 | 36991 ft | 452 kts | 30° |
| 2026-05-06 13:48 | 26.70210 | 122.52692 | 36996 ft | 452 kts | 30° |
| 2026-05-06 13:48 | 26.75343 | 122.56762 | 36998 ft | 452 kts | 30° |
| 2026-05-06 13:49 | 26.80488 | 122.60847 | 37002 ft | 452 kts | 30° |
| 2026-05-06 13:49 | 26.85592 | 122.64902 | 37006 ft | 452 kts | 30° |
| 2026-05-06 13:50 | 26.90723 | 122.68984 | 37006 ft | 451 kts | 31° |
| 2026-05-06 13:50 | 26.95868 | 122.73083 | 37007 ft | 452 kts | 30° |
| 2026-05-06 13:51 | 27.00987 | 122.77164 | 37010 ft | 452 kts | 30° |
| 2026-05-06 13:51 | 27.06080 | 122.81229 | 37009 ft | 452 kts | 31° |
| 2026-05-06 13:52 | 27.11210 | 122.85330 | 37008 ft | 452 kts | 30° |
| 2026-05-06 13:52 | 27.16644 | 122.88712 | 37009 ft | 442 kts | 17° |
| 2026-05-06 13:53 | 27.22555 | 122.90477 | 37009 ft | 433 kts | 3° |
| 2026-05-06 13:53 | 27.28501 | 122.90585 | 37008 ft | 425 kts | 350° |
| 2026-05-06 13:54 | 27.34108 | 122.88860 | 37010 ft | 416 kts | 332° |
| 2026-05-06 13:54 | 27.38798 | 122.85199 | 37010 ft | 410 kts | 314° |
| 2026-05-06 13:55 | 27.42126 | 122.80011 | 37010 ft | 409 kts | 296° |
| 2026-05-06 13:55 | 27.43727 | 122.73878 | 37008 ft | 412 kts | 278° |
| 2026-05-06 13:56 | 27.43858 | 122.67403 | 37003 ft | 415 kts | 273° |
| 2026-05-06 13:56 | 27.43871 | 122.60886 | 37001 ft | 415 kts | 272° |
| 2026-05-06 13:57 | 27.43880 | 122.54379 | 37004 ft | 414 kts | 272° |
| 2026-05-06 13:57 | 27.43887 | 122.47915 | 37002 ft | 414 kts | 272° |
| 2026-05-06 13:58 | 27.44041 | 122.41444 | 37003 ft | 412 kts | 280° |
| 2026-05-06 13:58 | 27.45110 | 122.35165 | 37005 ft | 412 kts | 283° |
| 2026-05-06 13:59 | 27.46225 | 122.28832 | 37007 ft | 412 kts | 282° |
| 2026-05-06 13:59 | 27.47336 | 122.22501 | 37005 ft | 413 kts | 282° |
| 2026-05-06 14:00 | 27.48443 | 122.16167 | 37008 ft | 413 kts | 282° |
| 2026-05-06 14:00 | 27.49556 | 122.09781 | 37009 ft | 420 kts | 282° |
| 2026-05-06 14:01 | 27.50682 | 122.03301 | 36999 ft | 427 kts | 282° |
| 2026-05-06 14:01 | 27.51832 | 121.96661 | 36998 ft | 433 kts | 282° |
| 2026-05-06 14:02 | 27.52987 | 121.89973 | 36998 ft | 438 kts | 282° |
| 2026-05-06 14:02 | 27.54147 | 121.83225 | 37001 ft | 442 kts | 282° |
| 2026-05-06 14:03 | 27.55314 | 121.76424 | 37004 ft | 443 kts | 282° |
| 2026-05-06 14:03 | 27.56475 | 121.69632 | 37003 ft | 442 kts | 282° |
| 2026-05-06 14:04 | 27.57628 | 121.62862 | 37007 ft | 442 kts | 282° |
| 2026-05-06 14:04 | 27.58792 | 121.56068 | 37008 ft | 442 kts | 282° |
| 2026-05-06 14:05 | 27.59999 | 121.49273 | 37015 ft | 442 kts | 282° |
| 2026-05-06 14:05 | 27.61199 | 121.42499 | 37012 ft | 442 kts | 282° |
| 2026-05-06 14:06 | 27.62396 | 121.35717 | 37014 ft | 442 kts | 282° |
| 2026-05-06 14:06 | 27.63596 | 121.28900 | 37016 ft | 442 kts | 282° |
| 2026-05-06 14:07 | 27.64788 | 121.22103 | 37014 ft | 442 kts | 282° |
| 2026-05-06 14:07 | 27.65970 | 121.15343 | 37015 ft | 442 kts | 282° |
| 2026-05-06 14:08 | 27.67162 | 121.08510 | 37021 ft | 442 kts | 282° |
| 2026-05-06 14:08 | 27.68338 | 121.01741 | 37018 ft | 442 kts | 282° |
| 2026-05-06 14:09 | 27.69516 | 120.94943 | 37018 ft | 442 kts | 282° |
| 2026-05-06 14:09 | 27.70692 | 120.88134 | 37017 ft | 442 kts | 282° |
| 2026-05-06 14:10 | 27.71868 | 120.81309 | 37021 ft | 442 kts | 282° |
| 2026-05-06 14:10 | 27.73035 | 120.74508 | 37022 ft | 442 kts | 282° |
| 2026-05-06 14:11 | 27.74195 | 120.67735 | 37026 ft | 441 kts | 282° |
| 2026-05-06 14:11 | 27.75639 | 120.61006 | 37027 ft | 441 kts | 290° |
| 2026-05-06 14:12 | 27.77811 | 120.54520 | 37030 ft | 441 kts | 291° |
| 2026-05-06 14:12 | 27.80400 | 120.48251 | 37030 ft | 442 kts | 301° |
| 2026-05-06 14:13 | 27.84191 | 120.42739 | 36480 ft | 452 kts | 313° |
| 2026-05-06 14:13 | 27.86520 | 120.40376 | 36150 ft | 451 kts | 319° |
| 2026-05-06 14:13 | 27.89092 | 120.38361 | 36134 ft | 449 kts | 326° |
| 2026-05-06 14:14 | 27.94801 | 120.35428 | 36145 ft | 457 kts | 339° |
| 2026-05-06 14:14 | 28.01047 | 120.33757 | 36150 ft | 461 kts | 343° |
| 2026-05-06 14:15 | 28.07384 | 120.32201 | 36145 ft | 462 kts | 343° |
| 2026-05-06 14:15 | 28.13671 | 120.30655 | 36132 ft | 462 kts | 343° |
| 2026-05-06 14:16 | 28.19940 | 120.29111 | 36125 ft | 461 kts | 343° |
| 2026-05-06 14:16 | 28.26221 | 120.27562 | 36116 ft | 462 kts | 343° |
| 2026-05-06 14:17 | 28.32531 | 120.26005 | 36137 ft | 462 kts | 343° |
| 2026-05-06 14:17 | 28.38816 | 120.24451 | 36144 ft | 462 kts | 343° |
| 2026-05-06 14:18 | 28.45147 | 120.22884 | 36163 ft | 462 kts | 343° |
| 2026-05-06 14:18 | 28.51436 | 120.21326 | 36169 ft | 463 kts | 343° |
| 2026-05-06 14:19 | 28.57727 | 120.19765 | 36140 ft | 463 kts | 343° |
| 2026-05-06 14:19 | 28.64075 | 120.18188 | 36120 ft | 463 kts | 343° |
| 2026-05-06 14:20 | 28.70360 | 120.16625 | 36106 ft | 464 kts | 343° |
| 2026-05-06 14:20 | 28.76693 | 120.15048 | 36097 ft | 464 kts | 343° |
| 2026-05-06 14:21 | 28.82993 | 120.13477 | 36085 ft | 464 kts | 343° |
| 2026-05-06 14:21 | 28.89335 | 120.11893 | 36084 ft | 465 kts | 343° |
| 2026-05-06 14:22 | 28.95679 | 120.10308 | 36082 ft | 465 kts | 343° |
| 2026-05-06 14:22 | 29.01975 | 120.08733 | 36086 ft | 465 kts | 343° |
| 2026-05-06 14:23 | 29.08323 | 120.07142 | 36061 ft | 466 kts | 343° |
| 2026-05-06 14:23 | 29.14671 | 120.05549 | 36060 ft | 466 kts | 343° |
| 2026-05-06 14:24 | 29.21029 | 120.03952 | 36061 ft | 467 kts | 343° |
| 2026-05-06 14:24 | 29.27398 | 120.02350 | 36048 ft | 467 kts | 343° |
| 2026-05-06 14:25 | 29.33714 | 120.00759 | 36041 ft | 466 kts | 343° |
| 2026-05-06 14:25 | 29.40046 | 119.99163 | 36046 ft | 466 kts | 343° |
| 2026-05-06 14:26 | 29.46387 | 119.97562 | 36048 ft | 466 kts | 343° |
| 2026-05-06 14:26 | 29.52770 | 119.95948 | 36047 ft | 467 kts | 343° |
| 2026-05-06 14:27 | 29.59130 | 119.94338 | 36057 ft | 467 kts | 343° |
| 2026-05-06 14:27 | 29.65463 | 119.92733 | 36067 ft | 466 kts | 343° |
| 2026-05-06 14:28 | 29.71795 | 119.91125 | 36074 ft | 466 kts | 343° |
| 2026-05-06 14:28 | 29.78134 | 119.89515 | 36071 ft | 466 kts | 343° |
| 2026-05-06 14:29 | 29.84495 | 119.87897 | 36063 ft | 466 kts | 343° |
| 2026-05-06 14:29 | 29.90853 | 119.86276 | 36051 ft | 466 kts | 343° |
| 2026-05-06 14:30 | 29.97211 | 119.84654 | 36038 ft | 466 kts | 343° |
| 2026-05-06 14:30 | 30.03550 | 119.83035 | 36039 ft | 466 kts | 343° |
| 2026-05-06 14:31 | 30.09888 | 119.81414 | 36050 ft | 467 kts | 343° |
| 2026-05-06 14:31 | 30.16219 | 119.79792 | 36046 ft | 467 kts | 343° |
| 2026-05-06 14:32 | 30.22591 | 119.78158 | 36053 ft | 467 kts | 342° |
| 2026-05-06 14:32 | 30.28960 | 119.76523 | 36050 ft | 467 kts | 343° |
| 2026-05-06 14:33 | 30.35286 | 119.74896 | 36050 ft | 466 kts | 342° |
| 2026-05-06 14:33 | 30.41665 | 119.73253 | 36055 ft | 466 kts | 343° |
| 2026-05-06 14:34 | 30.48016 | 119.71616 | 36057 ft | 466 kts | 342° |
| 2026-05-06 14:34 | 30.54367 | 119.69975 | 36057 ft | 466 kts | 342° |
| 2026-05-06 14:35 | 30.60715 | 119.68334 | 36055 ft | 467 kts | 342° |
| 2026-05-06 14:35 | 30.67041 | 119.66696 | 36046 ft | 467 kts | 342° |
| 2026-05-06 14:36 | 30.73400 | 119.65048 | 36043 ft | 467 kts | 343° |
| 2026-05-06 14:36 | 30.79747 | 119.63399 | 36039 ft | 467 kts | 342° |
| 2026-05-06 14:37 | 30.86079 | 119.61753 | 36030 ft | 468 kts | 342° |
| 2026-05-06 14:37 | 30.92446 | 119.60095 | 36027 ft | 468 kts | 342° |
| 2026-05-06 14:38 | 30.98833 | 119.58431 | 36032 ft | 468 kts | 342° |
| 2026-05-06 14:38 | 31.05171 | 119.56776 | 36033 ft | 468 kts | 342° |
| 2026-05-06 14:39 | 31.11537 | 119.55112 | 36033 ft | 468 kts | 342° |
| 2026-05-06 14:39 | 31.17824 | 119.53303 | 36035 ft | 463 kts | 336° |
| 2026-05-06 14:40 | 31.23593 | 119.50090 | 36035 ft | 454 kts | 323° |
| 2026-05-06 14:40 | 31.28603 | 119.45838 | 36028 ft | 452 kts | 319° |
| 2026-05-06 14:41 | 31.33682 | 119.41423 | 36023 ft | 453 kts | 319° |
| 2026-05-06 14:41 | 31.38730 | 119.37028 | 36021 ft | 452 kts | 319° |
| 2026-05-06 14:42 | 31.43797 | 119.32610 | 36021 ft | 453 kts | 319° |
| 2026-05-06 14:42 | 31.48860 | 119.28188 | 36019 ft | 453 kts | 319° |
| 2026-05-06 14:43 | 31.53901 | 119.23781 | 36022 ft | 453 kts | 319° |
| 2026-05-06 14:43 | 31.58931 | 119.19350 | 36024 ft | 453 kts | 319° |
| 2026-05-06 14:44 | 31.63949 | 119.14894 | 36020 ft | 453 kts | 318° |
| 2026-05-06 14:45 | 31.71104 | 119.07656 | 36022 ft | 451 kts | 315° |
| 2026-05-06 14:45 | 31.75819 | 119.02823 | 36023 ft | 451 kts | 315° |
| 2026-05-06 14:46 | 31.80606 | 118.98091 | 36023 ft | 453 kts | 320° |
| 2026-05-06 14:46 | 31.86196 | 118.94534 | 36026 ft | 462 kts | 333° |
| 2026-05-06 14:47 | 31.92244 | 118.91823 | 36014 ft | 463 kts | 334° |
| 2026-05-06 14:47 | 31.98294 | 118.89110 | 36009 ft | 464 kts | 334° |
| 2026-05-06 14:48 | 32.04332 | 118.86398 | 36008 ft | 464 kts | 334° |
| 2026-05-06 14:48 | 32.10407 | 118.83664 | 36005 ft | 465 kts | 334° |
| 2026-05-06 14:49 | 32.16444 | 118.80943 | 36008 ft | 465 kts | 334° |
| 2026-05-06 14:49 | 32.22478 | 118.78220 | 36007 ft | 464 kts | 334° |
| 2026-05-06 14:50 | 32.28496 | 118.75499 | 36007 ft | 465 kts | 334° |
| 2026-05-06 14:50 | 32.34537 | 118.72763 | 36006 ft | 466 kts | 334° |
| 2026-05-06 14:51 | 32.40597 | 118.70014 | 36004 ft | 466 kts | 334° |
| 2026-05-06 14:51 | 32.46689 | 118.67248 | 36002 ft | 467 kts | 334° |
| 2026-05-06 14:52 | 32.52721 | 118.64504 | 36002 ft | 468 kts | 334° |
| 2026-05-06 14:52 | 32.58823 | 118.61725 | 36002 ft | 467 kts | 334° |
| 2026-05-06 14:53 | 32.64896 | 118.58955 | 36004 ft | 468 kts | 334° |
| 2026-05-06 14:53 | 32.71056 | 118.56466 | 36001 ft | 471 kts | 339° |
| 2026-05-06 14:54 | 32.77365 | 118.54230 | 36013 ft | 472 kts | 339° |
| 2026-05-06 14:54 | 32.83615 | 118.52005 | 36012 ft | 472 kts | 339° |
| 2026-05-06 14:55 | 32.89935 | 118.49751 | 36013 ft | 472 kts | 339° |
| 2026-05-06 14:55 | 32.96228 | 118.47500 | 36009 ft | 472 kts | 339° |
| 2026-05-06 14:56 | 33.02503 | 118.45252 | 36008 ft | 472 kts | 339° |
| 2026-05-06 14:56 | 33.08791 | 118.42994 | 36003 ft | 472 kts | 339° |
| 2026-05-06 14:57 | 33.15081 | 118.40732 | 36003 ft | 472 kts | 338° |
| 2026-05-06 14:57 | 33.21349 | 118.38474 | 36000 ft | 472 kts | 338° |
| 2026-05-06 14:58 | 33.27654 | 118.36204 | 35995 ft | 473 kts | 338° |
| 2026-05-06 14:58 | 33.33976 | 118.33926 | 35999 ft | 473 kts | 338° |
| 2026-05-06 14:59 | 33.40295 | 118.31644 | 35995 ft | 473 kts | 338° |
| 2026-05-06 14:59 | 33.46592 | 118.29369 | 35991 ft | 473 kts | 338° |
| 2026-05-06 15:00 | 33.52881 | 118.27092 | 35992 ft | 472 kts | 338° |
| 2026-05-06 15:00 | 33.59157 | 118.24816 | 35992 ft | 472 kts | 337° |
| 2026-05-06 15:01 | 33.65471 | 118.22523 | 35993 ft | 471 kts | 337° |
| 2026-05-06 15:01 | 33.71743 | 118.20241 | 35990 ft | 471 kts | 337° |
| 2026-05-06 15:02 | 33.78005 | 118.17960 | 35991 ft | 472 kts | 337° |
| 2026-05-06 15:02 | 33.84278 | 118.15675 | 35991 ft | 472 kts | 337° |
| 2026-05-06 15:03 | 33.90581 | 118.13384 | 35990 ft | 472 kts | 337° |
| 2026-05-06 15:03 | 33.96891 | 118.11087 | 35988 ft | 472 kts | 337° |
| 2026-05-06 15:04 | 34.03176 | 118.08800 | 35988 ft | 472 kts | 337° |
| 2026-05-06 15:04 | 34.09477 | 118.06512 | 35985 ft | 472 kts | 337° |
| 2026-05-06 15:05 | 34.15768 | 118.04225 | 35984 ft | 472 kts | 336° |
| 2026-05-06 15:05 | 34.22042 | 118.01941 | 35979 ft | 471 kts | 336° |
| 2026-05-06 15:06 | 34.28336 | 117.99648 | 35985 ft | 471 kts | 337° |
| 2026-05-06 15:06 | 34.34607 | 117.97411 | 35981 ft | 471 kts | 336° |
| 2026-05-06 15:07 | 34.40902 | 117.95166 | 35978 ft | 471 kts | 337° |
| 2026-05-06 15:07 | 34.47193 | 117.92918 | 35972 ft | 471 kts | 336° |
| 2026-05-06 15:08 | 34.53473 | 117.90671 | 35978 ft | 470 kts | 336° |
| 2026-05-06 15:08 | 34.59755 | 117.88419 | 35972 ft | 470 kts | 336° |
| 2026-05-06 15:09 | 34.66020 | 117.86169 | 35971 ft | 470 kts | 336° |
| 2026-05-06 15:09 | 34.72306 | 117.83910 | 35972 ft | 469 kts | 336° |
| 2026-05-06 15:10 | 34.78527 | 117.81669 | 35959 ft | 468 kts | 336° |
| 2026-05-06 15:10 | 34.84794 | 117.79391 | 35955 ft | 467 kts | 336° |
| 2026-05-06 15:11 | 34.91010 | 117.77119 | 35957 ft | 467 kts | 336° |
| 2026-05-06 15:11 | 34.97235 | 117.74841 | 35956 ft | 467 kts | 336° |
| 2026-05-06 15:12 | 35.03463 | 117.72559 | 35962 ft | 468 kts | 336° |
| 2026-05-06 15:12 | 35.09717 | 117.70266 | 35967 ft | 467 kts | 336° |
| 2026-05-06 15:13 | 35.15924 | 117.67990 | 35972 ft | 466 kts | 335° |
| 2026-05-06 15:13 | 35.22142 | 117.65706 | 35977 ft | 466 kts | 336° |
| 2026-05-06 15:14 | 35.28345 | 117.63423 | 35979 ft | 465 kts | 335° |
| 2026-05-06 15:14 | 35.34524 | 117.61146 | 35980 ft | 465 kts | 335° |
| 2026-05-06 15:15 | 35.40728 | 117.58855 | 35977 ft | 465 kts | 335° |
| 2026-05-06 15:15 | 35.46901 | 117.56573 | 35987 ft | 465 kts | 335° |
| 2026-05-06 15:16 | 35.53106 | 117.54274 | 35989 ft | 465 kts | 335° |
| 2026-05-06 15:16 | 35.59275 | 117.51986 | 35986 ft | 464 kts | 335° |
| 2026-05-06 15:17 | 35.65453 | 117.49691 | 35991 ft | 464 kts | 335° |
| 2026-05-06 15:17 | 35.71639 | 117.47389 | 35993 ft | 463 kts | 335° |
| 2026-05-06 15:18 | 35.77780 | 117.45100 | 35990 ft | 463 kts | 335° |
| 2026-05-06 15:18 | 35.84004 | 117.42773 | 35997 ft | 469 kts | 335° |
| 2026-05-06 15:19 | 35.90282 | 117.40424 | 35998 ft | 473 kts | 335° |
| 2026-05-06 15:19 | 35.96617 | 117.38052 | 35993 ft | 473 kts | 335° |
| 2026-05-06 15:20 | 36.02894 | 117.35712 | 35996 ft | 473 kts | 335° |
| 2026-05-06 15:20 | 36.09204 | 117.33384 | 35997 ft | 472 kts | 334° |
| 2026-05-06 15:21 | 36.15476 | 117.31065 | 36003 ft | 471 kts | 334° |
| 2026-05-06 15:21 | 36.21747 | 117.28742 | 36001 ft | 469 kts | 334° |
| 2026-05-06 15:22 | 36.28013 | 117.26417 | 36010 ft | 469 kts | 334° |
| 2026-05-06 15:22 | 36.34248 | 117.24099 | 36019 ft | 468 kts | 334° |
| 2026-05-06 15:23 | 36.40464 | 117.21783 | 36032 ft | 467 kts | 333° |
| 2026-05-06 15:23 | 36.46439 | 117.18922 | 36041 ft | 458 kts | 328° |
| 2026-05-06 15:24 | 36.52327 | 117.15851 | 36036 ft | 457 kts | 328° |
| 2026-05-06 15:24 | 36.58148 | 117.12814 | 36027 ft | 455 kts | 327° |
| 2026-05-06 15:25 | 36.64011 | 117.09751 | 36029 ft | 456 kts | 328° |
| 2026-05-06 15:25 | 36.69850 | 117.06699 | 36020 ft | 455 kts | 327° |
| 2026-05-06 15:26 | 36.75675 | 117.03649 | 36021 ft | 453 kts | 327° |
| 2026-05-06 15:26 | 36.81485 | 117.00603 | 36025 ft | 453 kts | 327° |
| 2026-05-06 15:27 | 36.87305 | 116.97548 | 36032 ft | 452 kts | 327° |
| 2026-05-06 15:27 | 36.93126 | 116.94488 | 36028 ft | 451 kts | 327° |
| 2026-05-06 15:28 | 36.98880 | 116.91457 | 36029 ft | 450 kts | 327° |
| 2026-05-06 15:28 | 37.04625 | 116.88428 | 36041 ft | 450 kts | 327° |
| 2026-05-06 15:29 | 37.10411 | 116.85370 | 36036 ft | 450 kts | 327° |
| 2026-05-06 15:29 | 37.16157 | 116.82330 | 36037 ft | 450 kts | 326° |
| 2026-05-06 15:30 | 37.21949 | 116.79316 | 36042 ft | 454 kts | 329° |
| 2026-05-06 15:30 | 37.28021 | 116.76978 | 36050 ft | 459 kts | 332° |
| 2026-05-06 15:31 | 37.34170 | 116.74666 | 36053 ft | 459 kts | 332° |
| 2026-05-06 15:31 | 37.40299 | 116.72354 | 36064 ft | 459 kts | 332° |
| 2026-05-06 15:32 | 37.49468 | 116.68884 | 36063 ft | 459 kts | 332° |
| 2026-05-06 15:32 | 37.55567 | 116.66573 | 36063 ft | 458 kts | 332° |
| 2026-05-06 15:33 | 37.61715 | 116.64233 | 36066 ft | 459 kts | 332° |
| 2026-05-06 15:33 | 37.68051 | 116.62508 | 36072 ft | 476 kts | 342° |
| 2026-05-06 15:34 | 37.74806 | 116.62450 | 35732 ft | 501 kts | 354° |
| 2026-05-06 15:34 | 37.78252 | 116.63182 | 35195 ft | 509 kts | 3° |
| 2026-05-06 15:34 | 37.81647 | 116.64477 | 34746 ft | 516 kts | 8° |
| 2026-05-06 15:35 | 37.85048 | 116.65950 | 34274 ft | 517 kts | 9° |
| 2026-05-06 15:35 | 37.88476 | 116.67432 | 33814 ft | 519 kts | 9° |
| 2026-05-06 15:35 | 37.91883 | 116.68906 | 33351 ft | 520 kts | 9° |
| 2026-05-06 15:35 | 37.95306 | 116.70388 | 32891 ft | 520 kts | 9° |
| 2026-05-06 15:36 | 37.98722 | 116.71870 | 32419 ft | 520 kts | 10° |
| 2026-05-06 15:36 | 38.02185 | 116.73377 | 31940 ft | 518 kts | 11° |
| 2026-05-06 15:36 | 38.05554 | 116.74841 | 31482 ft | 515 kts | 11° |
| 2026-05-06 15:36 | 38.08956 | 116.76323 | 31014 ft | 514 kts | 12° |
| 2026-05-06 15:37 | 38.12350 | 116.77801 | 30539 ft | 512 kts | 12° |
| 2026-05-06 15:37 | 38.15687 | 116.79256 | 30069 ft | 511 kts | 12° |
| 2026-05-06 15:37 | 38.19034 | 116.80717 | 29606 ft | 508 kts | 12° |
| 2026-05-06 15:37 | 38.22378 | 116.82178 | 29121 ft | 506 kts | 13° |
| 2026-05-06 15:38 | 38.25683 | 116.83624 | 28662 ft | 502 kts | 13° |
| 2026-05-06 15:38 | 38.29005 | 116.85078 | 28185 ft | 499 kts | 12° |
| 2026-05-06 15:38 | 38.32254 | 116.86503 | 27717 ft | 495 kts | 12° |
| 2026-05-06 15:38 | 38.35487 | 116.87922 | 27244 ft | 491 kts | 12° |
| 2026-05-06 15:39 | 38.38726 | 116.89344 | 26772 ft | 487 kts | 12° |
| 2026-05-06 15:39 | 38.41917 | 116.90745 | 26302 ft | 484 kts | 12° |
| 2026-05-06 15:39 | 38.45089 | 116.92139 | 25831 ft | 480 kts | 12° |
| 2026-05-06 15:39 | 38.48206 | 116.93512 | 25355 ft | 476 kts | 12° |
| 2026-05-06 15:40 | 38.51337 | 116.94892 | 24875 ft | 472 kts | 12° |
| 2026-05-06 15:40 | 38.54425 | 116.96255 | 24398 ft | 467 kts | 12° |
| 2026-05-06 15:40 | 38.57444 | 116.97588 | 23925 ft | 462 kts | 12° |
| 2026-05-06 15:40 | 38.60490 | 116.98933 | 23447 ft | 459 kts | 12° |
| 2026-05-06 15:41 | 38.63482 | 117.00256 | 22980 ft | 454 kts | 12° |
| 2026-05-06 15:41 | 38.66444 | 117.01567 | 22508 ft | 449 kts | 12° |
| 2026-05-06 15:41 | 38.69365 | 117.02860 | 22032 ft | 445 kts | 12° |
| 2026-05-06 15:41 | 38.72275 | 117.04150 | 21561 ft | 441 kts | 12° |
| 2026-05-06 15:42 | 38.75188 | 117.05442 | 21081 ft | 437 kts | 12° |
| 2026-05-06 15:42 | 38.78046 | 117.06711 | 20573 ft | 433 kts | 13° |
| 2026-05-06 15:42 | 38.80851 | 117.07959 | 19839 ft | 423 kts | 12° |
| 2026-05-06 15:42 | 38.83606 | 117.09190 | 19057 ft | 409 kts | 13° |
| 2026-05-06 15:43 | 38.86243 | 117.10366 | 18281 ft | 398 kts | 13° |
| 2026-05-06 15:43 | 38.88805 | 117.11510 | 17513 ft | 387 kts | 13° |
| 2026-05-06 15:43 | 38.91300 | 117.12624 | 16746 ft | 378 kts | 13° |
| 2026-05-06 15:43 | 38.93764 | 117.13723 | 16069 ft | 365 kts | 12° |
| 2026-05-06 15:44 | 38.96067 | 117.14756 | 15775 ft | 344 kts | 13° |
| 2026-05-06 15:44 | 38.98247 | 117.15738 | 15689 ft | 319 kts | 12° |
| 2026-05-06 15:44 | 39.00297 | 117.16660 | 15692 ft | 303 kts | 11° |
| 2026-05-06 15:44 | 39.02127 | 117.17418 | 15690 ft | 299 kts | 4° |
| 2026-05-06 15:45 | 39.04133 | 117.17503 | 15690 ft | 282 kts | 341° |
| 2026-05-06 15:45 | 39.05988 | 117.16792 | 15691 ft | 275 kts | 332° |
| 2026-05-06 15:45 | 39.07800 | 117.15982 | 15682 ft | 275 kts | 333° |
| 2026-05-06 15:45 | 39.09604 | 117.15183 | 15687 ft | 276 kts | 333° |
| 2026-05-06 15:46 | 39.11442 | 117.14366 | 15152 ft | 284 kts | 333° |
| 2026-05-06 15:46 | 39.13315 | 117.13519 | 14367 ft | 286 kts | 331° |
| 2026-05-06 15:46 | 39.14994 | 117.12247 | 13588 ft | 281 kts | 319° |
| 2026-05-06 15:46 | 39.16567 | 117.10775 | 13108 ft | 272 kts | 319° |
| 2026-05-06 15:47 | 39.18055 | 117.09400 | 12853 ft | 258 kts | 319° |
| 2026-05-06 15:47 | 39.19480 | 117.08083 | 12605 ft | 244 kts | 319° |
| 2026-05-06 15:47 | 39.20822 | 117.06841 | 12371 ft | 233 kts | 319° |
| 2026-05-06 15:47 | 39.22109 | 117.05650 | 12119 ft | 224 kts | 319° |
| 2026-05-06 15:48 | 39.23350 | 117.04501 | 11871 ft | 216 kts | 319° |
| 2026-05-06 15:48 | 39.24561 | 117.03378 | 11624 ft | 208 kts | 319° |
| 2026-05-06 15:48 | 39.25716 | 117.02307 | 11374 ft | 202 kts | 319° |
| 2026-05-06 15:48 | 39.26826 | 117.01279 | 11133 ft | 195 kts | 319° |
| 2026-05-06 15:49 | 39.27921 | 117.00264 | 10930 ft | 188 kts | 319° |
| 2026-05-06 15:49 | 39.28953 | 116.99308 | 10736 ft | 182 kts | 319° |
| 2026-05-06 15:49 | 39.29981 | 116.98354 | 10534 ft | 181 kts | 319° |
| 2026-05-06 15:49 | 39.31005 | 116.97402 | 10330 ft | 182 kts | 319° |
| 2026-05-06 15:50 | 39.32047 | 116.96434 | 10126 ft | 189 kts | 320° |
| 2026-05-06 15:50 | 39.33265 | 116.95284 | 9935 ft | 250 kts | 320° |
| 2026-05-06 15:50 | 39.34779 | 116.93863 | 9759 ft | 281 kts | 322° |
| 2026-05-06 15:50 | 39.36415 | 116.92346 | 9540 ft | 302 kts | 322° |
| 2026-05-06 15:51 | 39.38221 | 116.90666 | 9319 ft | 336 kts | 322° |
| 2026-05-06 15:51 | 39.40154 | 116.88873 | 9107 ft | 344 kts | 323° |
| 2026-05-06 15:51 | 39.42107 | 116.87064 | 8908 ft | 344 kts | 323° |
| 2026-05-06 15:51 | 39.44047 | 116.85265 | 8709 ft | 343 kts | 323° |
| 2026-05-06 15:52 | 39.45988 | 116.83465 | 8508 ft | 348 kts | 323° |
| 2026-05-06 15:52 | 39.47971 | 116.81623 | 8306 ft | 353 kts | 323° |
| 2026-05-06 15:52 | 39.49960 | 116.79771 | 8101 ft | 351 kts | 323° |
| 2026-05-06 15:52 | 39.51848 | 116.78017 | 8020 ft | 308 kts | 323° |
| 2026-05-06 15:53 | 39.53297 | 116.76676 | 9255 ft | 209 kts | 322° |
| 2026-05-06 15:53 | 39.54520 | 116.75716 | 8664 ft | 216 kts | 335° |
| 2026-05-06 15:53 | 39.56053 | 116.75077 | 7805 ft | 245 kts | 343° |
| 2026-05-06 15:53 | 39.57678 | 116.74610 | 7433 ft | 235 kts | 347° |
| 2026-05-06 15:54 | 39.59256 | 116.74273 | 7039 ft | 225 kts | 349° |
| 2026-05-06 15:54 | 39.60788 | 116.74005 | 6607 ft | 218 kts | 350° |
| 2026-05-06 15:54 | 39.62273 | 116.73752 | 6181 ft | 211 kts | 350° |
| 2026-05-06 15:54 | 39.63689 | 116.73499 | 5776 ft | 204 kts | 350° |
| 2026-05-06 15:55 | 39.65071 | 116.73299 | 5558 ft | 184 kts | 352° |
| 2026-05-06 15:55 | 39.66262 | 116.73089 | 5504 ft | 160 kts | 345° |
| 2026-05-06 15:55 | 39.67311 | 116.72811 | 5483 ft | 144 kts | 348° |
| 2026-05-06 15:55 | 39.68290 | 116.72617 | 5583 ft | 146 kts | 349° |
| 2026-05-06 15:56 | 39.69317 | 116.72411 | 5444 ft | 151 kts | 349° |
| 2026-05-06 15:56 | 39.70367 | 116.72269 | 4952 ft | 154 kts | 352° |
| 2026-05-06 15:56 | 39.71407 | 116.72110 | 4236 ft | 149 kts | 349° |
| 2026-05-06 15:56 | 39.72408 | 116.71919 | 3626 ft | 145 kts | 349° |
| 2026-05-06 15:57 | 39.73402 | 116.71747 | 3219 ft | 146 kts | 353° |
| 2026-05-06 15:57 | 39.74412 | 116.71625 | 2817 ft | 147 kts | 353° |
| 2026-05-06 15:57 | 39.75428 | 116.71484 | 2391 ft | 146 kts | 352° |
| 2026-05-06 15:57 | 39.76436 | 116.71362 | 1872 ft | 147 kts | 352° |
| 2026-05-06 15:58 | 39.77429 | 116.71182 | 1406 ft | 147 kts | 352° |
| 2026-05-06 15:58 | 39.78460 | 116.71043 | 904 ft | 150 kts | 354° |
| 2026-05-06 15:58 | 39.79508 | 116.70921 | 388 ft | 153 kts | 354° |
| 2026-05-06 15:58 | 39.80554 | 116.70787 | 93 ft | 151 kts | 356° |
| 2026-05-06 15:59 | 39.81475 | 116.70680 | 85 ft | 110 kts | 354° |
| 2026-05-06 15:59 | 39.82108 | 116.70652 | 74 ft | 78 kts | 358° |
| 2026-05-06 15:59 | 39.82575 | 116.70602 | 73 ft | 57 kts | 350° |
| 2026-05-06 15:59 | 39.82899 | 116.70512 | 81 ft | 31 kts | 345° |
| 2026-05-06 16:00 | 39.82926 | 116.70502 | 82 ft | 0 kts | 345° |